Terminal Aerodrome Forecast
Issued by NWS

Home | Current Version | Previous Version | Text Only | Print | Product List | Glossary On
Versions: 1 2 3 4 5 6 7 8 9 10 11 12 13 14 15 16 17 18 19 20 21 22 23
000
FTUS45 KREV 281100
TAFTRK
TAF
KTRK 281120Z 2812/2912 VRB03KT P6SM BKN050
      TEMPO 2812/2815 BKN050
     FM281900 25006KT P6SM SKC
     FM290300 VRB03KT P6SM SKC=

USA.gov is the U.S. government's official web portal to all federal, state and local government web resources and services.